Time;durP1;ratioP1;P1;durP2;ratioP2;P2;SDS_P1;SDS_P2;PMS_P1;PMS_P2;Temp;Humidity;BMP_temperature;BMP_pressure;BME280_temperature;BME280_humidity;BME280_pressure;Samples;Min_cycle;Max_cycle;Signal;HPM_P1;HPM_P2
2023/06/26 00:01:13;;;;;;;10.55;7.72;;;;;;;;;;5062331;28;20155;-80
2023/06/26 00:03:39;;;;;;;14.30;8.27;;;;;;;;;;5080969;28;20040;-80
2023/06/26 00:06:04;;;;;;;11.63;7.97;;;;;;;;;;5062436;28;20059;-79
2023/06/26 00:08:29;;;;;;;10.57;7.53;;;;;;;;;;5062219;28;20025;-80
2023/06/26 00:10:55;;;;;;;11.60;7.15;;;;;;;;;;5080338;28;20054;-80
2023/06/26 00:13:22;;;;;;;14.40;8.68;;;;;;;;;;5080500;28;20032;-80
2023/06/26 00:15:47;;;;;;;10.93;7.90;;;;;;;;;;5062961;28;20028;-79
2023/06/26 00:18:13;;;;;;;11.40;8.52;;;;;;;;;;5092370;28;20019;-78
2023/06/26 00:20:38;;;;;;;15.88;7.82;;;;;;;;;;5076352;28;20020;-77
2023/06/26 00:23:07;;;;;;;10.98;7.75;;;;;;;;;;5092629;28;20032;-77
2023/06/26 00:25:35;;;;;;;9.02;7.10;;;;;;;;;;5092546;28;20017;-78
2023/06/26 00:28:01;;;;;;;11.43;7.93;;;;;;;;;;5074587;28;20033;-77
2023/06/26 00:30:26;;;;;;;12.30;7.63;;;;;;;;;;5093150;28;20031;-77
2023/06/26 00:32:52;;;;;;;11.00;8.13;;;;;;;;;;5070506;28;20031;-79
2023/06/26 00:35:17;;;;;;;13.90;8.00;;;;;;;;;;5080208;28;20086;-80
2023/06/26 00:37:42;;;;;;;13.35;7.47;;;;;;;;;;5061899;28;20056;-78
2023/06/26 00:40:08;;;;;;;11.15;7.40;;;;;;;;;;5079636;28;20100;-80
2023/06/26 00:42:34;;;;;;;11.38;6.47;;;;;;;;;;5062037;28;20503;-80
2023/06/26 00:44:59;;;;;;;14.60;7.47;;;;;;;;;;5079892;28;20032;-80
2023/06/26 00:47:25;;;;;;;11.95;7.78;;;;;;;;;;5080374;28;20036;-80
2023/06/26 00:49:51;;;;;;;11.65;8.15;;;;;;;;;;5079516;28;20624;-80
2023/06/26 00:52:17;;;;;;;10.80;7.18;;;;;;;;;;5079622;28;20035;-79
2023/06/26 00:54:42;;;;;;;14.50;8.15;;;;;;;;;;5062506;28;20025;-80
2023/06/26 00:57:08;;;;;;;11.25;7.78;;;;;;;;;;5061552;28;20340;-79
2023/06/26 00:59:34;;;;;;;12.80;7.65;;;;;;;;;;5062940;28;20039;-80
2023/06/26 01:01:59;;;;;;;11.95;7.90;;;;;;;;;;5061630;28;20044;-80
2023/06/26 01:04:27;;;;;;;11.32;7.55;;;;;;;;;;5060870;28;20036;-80
2023/06/26 01:06:54;;;;;;;11.88;7.82;;;;;;;;;;5078687;28;20549;-79
2023/06/26 01:09:20;;;;;;;11.70;7.82;;;;;;;;;;5079233;28;20025;-80
2023/06/26 01:11:46;;;;;;;12.10;7.60;;;;;;;;;;5079787;28;20437;-79
2023/06/26 01:14:11;;;;;;;11.45;7.00;;;;;;;;;;5061091;28;20090;-79
2023/06/26 01:16:38;;;;;;;10.88;7.15;;;;;;;;;;5078994;28;20489;-78
2023/06/26 01:19:08;;;;;;;11.40;7.45;;;;;;;;;;5078708;28;20097;-80
2023/06/26 01:21:37;;;;;;;10.50;7.18;;;;;;;;;;5065187;28;20048;-80
2023/06/26 01:24:20;;;;;;;11.95;6.50;;;;;;;;;;5082959;28;20115;-83
2023/06/26 01:26:47;;;;;;;14.60;7.30;;;;;;;;;;5083507;28;20033;-79
2023/06/26 01:29:14;;;;;;;11.80;8.07;;;;;;;;;;5064977;28;20036;-78
2023/06/26 01:31:41;;;;;;;11.27;7.50;;;;;;;;;;5083271;28;20059;-80
2023/06/26 01:34:07;;;;;;;10.05;7.32;;;;;;;;;;5082586;28;20545;-80
2023/06/26 01:36:32;;;;;;;11.50;6.55;;;;;;;;;;5064316;28;20025;-80
2023/06/26 01:38:57;;;;;;;14.05;7.13;;;;;;;;;;5083210;28;20028;-79
2023/06/26 01:41:24;;;;;;;9.80;7.00;;;;;;;;;;5064513;28;20181;-81
2023/06/26 01:44:02;;;;;;;11.98;6.95;;;;;;;;;;5083326;28;20039;-81
2023/06/26 01:46:41;;;;;;;9.52;6.95;;;;;;;;;;5064509;28;20032;-80
2023/06/26 01:49:12;;;;;;;9.60;6.47;;;;;;;;;;5083669;28;20044;-79
2023/06/26 01:51:58;;;;;;;13.93;6.78;;;;;;;;;;5081815;28;20036;-79
2023/06/26 01:54:27;;;;;;;10.43;7.38;;;;;;;;;;5047363;28;20032;-79
2023/06/26 01:56:54;;;;;;;11.65;7.07;;;;;;;;;;5082745;28;20036;-80
2023/06/26 01:59:21;;;;;;;9.23;7.13;;;;;;;;;;5081894;28;20067;-79
2023/06/26 02:01:47;;;;;;;10.52;7.40;;;;;;;;;;5063673;28;20029;-77
2023/06/26 02:04:12;;;;;;;11.52;7.40;;;;;;;;;;5063074;28;20040;-79
2023/06/26 02:06:37;;;;;;;11.57;7.47;;;;;;;;;;5064215;28;20070;-79
2023/06/26 02:09:03;;;;;;;10.70;7.05;;;;;;;;;;5082284;28;20035;-79
2023/06/26 02:11:29;;;;;;;12.93;7.35;;;;;;;;;;5063922;28;20031;-79
2023/06/26 02:13:54;;;;;;;11.10;7.30;;;;;;;;;;5063698;28;20021;-80
2023/06/26 02:16:19;;;;;;;12.20;7.65;;;;;;;;;;5081187;28;20454;-78
2023/06/26 02:18:45;;;;;;;10.93;7.45;;;;;;;;;;5080889;28;20044;-77
2023/06/26 02:21:11;;;;;;;11.75;7.07;;;;;;;;;;5063475;28;20033;-81
2023/06/26 02:23:37;;;;;;;11.00;7.40;;;;;;;;;;5064522;28;20032;-80
2023/06/26 02:26:03;;;;;;;11.30;7.50;;;;;;;;;;5081906;28;20043;-82
2023/06/26 02:28:28;;;;;;;10.40;7.45;;;;;;;;;;5083385;28;20029;-79
2023/06/26 02:30:53;;;;;;;10.38;7.40;;;;;;;;;;5081556;28;20064;-81
2023/06/26 02:33:18;;;;;;;13.55;7.18;;;;;;;;;;5062147;28;20021;-81
2023/06/26 02:35:44;;;;;;;11.02;7.90;;;;;;;;;;5064736;28;20054;-77
2023/06/26 02:38:09;;;;;;;10.85;7.47;;;;;;;;;;5081022;28;20028;-79
2023/06/26 02:40:34;;;;;;;9.82;7.35;;;;;;;;;;5063815;28;20024;-79
2023/06/26 02:43:00;;;;;;;12.38;7.75;;;;;;;;;;5063826;28;20588;-81
2023/06/26 02:45:25;;;;;;;10.13;7.43;;;;;;;;;;5062857;28;20066;-79
2023/06/26 02:47:50;;;;;;;14.88;7.70;;;;;;;;;;5063426;28;20013;-81
2023/06/26 02:50:16;;;;;;;13.20;7.15;;;;;;;;;;5079926;28;20431;-81
2023/06/26 02:52:41;;;;;;;12.18;7.30;;;;;;;;;;5080704;28;20029;-79
2023/06/26 02:55:07;;;;;;;9.35;7.05;;;;;;;;;;5079893;28;20059;-80
2023/06/26 02:57:32;;;;;;;11.70;7.50;;;;;;;;;;5080374;28;20107;-81
2023/06/26 02:59:57;;;;;;;9.88;6.90;;;;;;;;;;5062382;28;20031;-79
2023/06/26 03:02:22;;;;;;;10.23;7.28;;;;;;;;;;5061963;28;20398;-79
2023/06/26 03:04:49;;;;;;;10.23;6.95;;;;;;;;;;5061965;28;20036;-77
2023/06/26 03:07:15;;;;;;;9.98;6.65;;;;;;;;;;5079571;28;20545;-81
2023/06/26 03:09:41;;;;;;;13.18;6.75;;;;;;;;;;5062104;28;20033;-77
2023/06/26 03:12:07;;;;;;;10.10;6.90;;;;;;;;;;5060832;28;20031;-81
2023/06/26 03:14:32;;;;;;;8.90;6.45;;;;;;;;;;5061310;28;20032;-81
2023/06/26 03:16:58;;;;;;;15.98;6.40;;;;;;;;;;5061588;28;20059;-81
2023/06/26 03:19:24;;;;;;;9.60;6.47;;;;;;;;;;5061567;28;20388;-81
2023/06/26 03:21:50;;;;;;;8.85;6.15;;;;;;;;;;5078867;28;20108;-81
2023/06/26 03:24:15;;;;;;;8.50;6.72;;;;;;;;;;5061626;28;20525;-80
2023/06/26 03:26:40;;;;;;;15.40;6.50;;;;;;;;;;5079851;28;20035;-79
2023/06/26 03:29:06;;;;;;;9.85;5.93;;;;;;;;;;5079448;28;20521;-81
2023/06/26 03:31:31;;;;;;;10.77;6.47;;;;;;;;;;5061419;28;20506;-78
2023/06/26 03:33:56;;;;;;;8.90;6.65;;;;;;;;;;5062134;28;20073;-82
2023/06/26 03:36:22;;;;;;;11.32;6.38;;;;;;;;;;5062376;28;20040;-80
2023/06/26 03:38:47;;;;;;;8.73;6.25;;;;;;;;;;5062684;28;20020;-80
2023/06/26 03:41:12;;;;;;;10.00;6.63;;;;;;;;;;5062250;28;20415;-79
2023/06/26 03:43:38;;;;;;;9.88;6.35;;;;;;;;;;5061358;28;20040;-81
2023/06/26 03:46:03;;;;;;;8.07;6.50;;;;;;;;;;5061918;28;20060;-82
2023/06/26 03:48:28;;;;;;;7.93;6.18;;;;;;;;;;5080231;28;20102;-81
2023/06/26 03:50:54;;;;;;;9.13;6.03;;;;;;;;;;5080844;28;20028;-82
2023/06/26 03:53:19;;;;;;;10.90;7.03;;;;;;;;;;5061958;28;20033;-82
2023/06/26 03:55:44;;;;;;;8.73;6.20;;;;;;;;;;5062801;28;20052;-82
2023/06/26 03:58:10;;;;;;;13.32;6.95;;;;;;;;;;5062019;28;20058;-82
2023/06/26 04:00:35;;;;;;;9.50;6.43;;;;;;;;;;5062272;28;20039;-82
2023/06/26 04:03:00;;;;;;;8.90;6.20;;;;;;;;;;5062529;28;20028;-82
2023/06/26 04:05:25;;;;;;;9.57;6.32;;;;;;;;;;5062106;28;20088;-82
2023/06/26 04:07:52;;;;;;;17.73;6.75;;;;;;;;;;5079909;28;20115;-82
2023/06/26 04:10:18;;;;;;;10.57;6.35;;;;;;;;;;5078556;28;20035;-81
2023/06/26 04:12:43;;;;;;;8.65;6.25;;;;;;;;;;5065450;28;20041;-81
2023/06/26 04:15:08;;;;;;;10.50;6.78;;;;;;;;;;5066117;28;20472;-80
2023/06/26 04:17:34;;;;;;;9.40;6.47;;;;;;;;;;5058173;28;20017;-80
2023/06/26 04:19:59;;;;;;;7.65;5.68;;;;;;;;;;5039049;28;20040;-80
2023/06/26 04:22:25;;;;;;;7.00;5.95;;;;;;;;;;5046721;28;20399;-81
2023/06/26 04:24:51;;;;;;;9.40;6.65;;;;;;;;;;5039674;28;20507;-80
2023/06/26 04:27:17;;;;;;;8.80;5.65;;;;;;;;;;5047269;28;20083;-81
2023/06/26 04:29:42;;;;;;;9.23;5.60;;;;;;;;;;5057298;28;20100;-81
2023/06/26 04:32:07;;;;;;;8.95;5.72;;;;;;;;;;5057077;28;20447;-81
2023/06/26 04:34:33;;;;;;;10.07;6.13;;;;;;;;;;5046750;28;20106;-81
2023/06/26 04:36:59;;;;;;;9.82;5.60;;;;;;;;;;5039182;28;20033;-81
2023/06/26 04:39:24;;;;;;;8.73;5.50;;;;;;;;;;5039300;28;20108;-81
2023/06/26 04:41:50;;;;;;;7.53;5.30;;;;;;;;;;5040014;28;20025;-81
2023/06/26 04:44:15;;;;;;;7.45;5.25;;;;;;;;;;5046644;28;20029;-81
2023/06/26 04:46:43;;;;;;;12.50;5.07;;;;;;;;;;5039965;28;20041;-81
2023/06/26 04:49:09;;;;;;;6.32;5.05;;;;;;;;;;5045583;28;20032;-81
2023/06/26 04:51:40;;;;;;;5.22;4.72;;;;;;;;;;5045137;28;20498;-81
2023/06/26 04:54:06;;;;;;;7.53;5.00;;;;;;;;;;5048706;28;20035;-79
2023/06/26 04:56:32;;;;;;;6.10;4.95;;;;;;;;;;5078061;28;20025;-81
2023/06/26 04:58:57;;;;;;;8.40;5.28;;;;;;;;;;5046705;28;20039;-80
2023/06/26 05:01:22;;;;;;;5.75;4.68;;;;;;;;;;5048384;28;20391;-80
2023/06/26 05:03:47;;;;;;;15.55;5.05;;;;;;;;;;5044466;28;20067;-81
2023/06/26 05:06:14;;;;;;;8.00;5.25;;;;;;;;;;5053390;28;20140;-81
2023/06/26 05:08:39;;;;;;;9.27;4.75;;;;;;;;;;5055853;28;20074;-81
2023/06/26 05:11:04;;;;;;;7.07;5.50;;;;;;;;;;5071910;28;20033;-81
2023/06/26 05:13:30;;;;;;;7.00;4.68;;;;;;;;;;5069841;28;20528;-81
2023/06/26 05:15:55;;;;;;;5.45;4.82;;;;;;;;;;5048414;28;20487;-81
2023/06/26 05:18:20;;;;;;;6.45;4.75;;;;;;;;;;5042203;28;20033;-81
2023/06/26 05:20:46;;;;;;;5.68;4.75;;;;;;;;;;5041093;28;20509;-81
2023/06/26 05:23:12;;;;;;;8.95;4.88;;;;;;;;;;5043545;28;20088;-81
2023/06/26 05:25:38;;;;;;;5.93;4.60;;;;;;;;;;5058724;28;20056;-80
2023/06/26 05:28:05;;;;;;;10.57;5.03;;;;;;;;;;5043806;28;20090;-79
2023/06/26 05:30:31;;;;;;;8.23;4.80;;;;;;;;;;5045938;28;20119;-81
2023/06/26 05:32:59;;;;;;;6.25;4.78;;;;;;;;;;5058872;28;20021;-81
2023/06/26 05:35:28;;;;;;;5.90;4.93;;;;;;;;;;5070252;28;20463;-80
2023/06/26 05:37:55;;;;;;;8.60;5.10;;;;;;;;;;5043743;28;20056;-80
2023/06/26 05:40:20;;;;;;;6.63;5.03;;;;;;;;;;5057861;28;20098;-79
2023/06/26 05:42:46;;;;;;;6.22;4.68;;;;;;;;;;5067423;28;20140;-80
2023/06/26 05:45:11;;;;;;;7.43;4.88;;;;;;;;;;5057410;28;20525;-80
2023/06/26 05:47:37;;;;;;;7.38;5.13;;;;;;;;;;5039654;28;20025;-78
2023/06/26 05:50:03;;;;;;;5.95;4.97;;;;;;;;;;5061635;28;20051;-80
2023/06/26 05:52:29;;;;;;;10.43;5.00;;;;;;;;;;5067387;28;20036;-81
2023/06/26 05:54:58;;;;;;;6.90;5.20;;;;;;;;;;5052247;28;20199;-80
2023/06/26 05:57:24;;;;;;;5.30;4.55;;;;;;;;;;5063023;28;20029;-80
2023/06/26 05:59:49;;;;;;;9.73;4.63;;;;;;;;;;5064385;28;20116;-79
2023/06/26 06:02:14;;;;;;;6.13;5.30;;;;;;;;;;5055954;28;20036;-80
2023/06/26 06:04:40;;;;;;;10.00;4.50;;;;;;;;;;5058196;28;20091;-77
2023/06/26 06:07:05;;;;;;;5.65;5.05;;;;;;;;;;5038736;28;20033;-80
2023/06/26 06:09:30;;;;;;;4.97;4.50;;;;;;;;;;5073359;28;20033;-80
2023/06/26 06:11:56;;;;;;;6.75;5.40;;;;;;;;;;5039055;28;20032;-80
2023/06/26 06:14:21;;;;;;;7.03;5.15;;;;;;;;;;5039321;28;20128;-80
2023/06/26 06:16:46;;;;;;;9.52;5.00;;;;;;;;;;5048990;28;20036;-80
2023/06/26 06:19:13;;;;;;;5.40;4.90;;;;;;;;;;5052027;28;20028;-80
2023/06/26 06:21:38;;;;;;;6.35;5.28;;;;;;;;;;5066790;28;20052;-80
2023/06/26 06:24:04;;;;;;;6.22;4.60;;;;;;;;;;5070547;28;20016;-80
2023/06/26 06:26:29;;;;;;;5.82;5.22;;;;;;;;;;5059937;28;20025;-81
2023/06/26 06:28:54;;;;;;;7.45;4.90;;;;;;;;;;5055637;28;20031;-79
2023/06/26 06:31:20;;;;;;;5.93;4.65;;;;;;;;;;5068829;28;20032;-80
2023/06/26 06:33:45;;;;;;;6.10;4.97;;;;;;;;;;5046780;28;20092;-79
2023/06/26 06:36:10;;;;;;;7.45;4.78;;;;;;;;;;5038230;28;20032;-79
2023/06/26 06:38:36;;;;;;;15.45;5.25;;;;;;;;;;5056034;28;20080;-79
2023/06/26 06:41:01;;;;;;;10.23;5.20;;;;;;;;;;5051256;28;20063;-80
2023/06/26 06:43:27;;;;;;;6.80;4.90;;;;;;;;;;5058458;28;20035;-80
2023/06/26 06:45:52;;;;;;;4.78;4.35;;;;;;;;;;5059615;28;20033;-81
2023/06/26 06:48:17;;;;;;;7.20;5.03;;;;;;;;;;5068292;28;20070;-81
2023/06/26 06:50:43;;;;;;;5.60;5.00;;;;;;;;;;5049017;28;20029;-81
2023/06/26 06:53:08;;;;;;;7.10;5.10;;;;;;;;;;5043947;28;20122;-81
2023/06/26 06:55:33;;;;;;;6.53;4.95;;;;;;;;;;5047314;28;20100;-80
2023/06/26 06:57:58;;;;;;;5.25;4.72;;;;;;;;;;5045802;28;20033;-81
2023/06/26 07:00:24;;;;;;;6.13;4.68;;;;;;;;;;5065023;28;20117;-81
2023/06/26 07:02:49;;;;;;;5.72;5.03;;;;;;;;;;5046407;28;20040;-81
2023/06/26 07:05:16;;;;;;;6.03;4.50;;;;;;;;;;5037740;28;20350;-80
2023/06/26 07:07:41;;;;;;;7.40;4.47;;;;;;;;;;5063517;28;20058;-80
2023/06/26 07:10:09;;;;;;;5.50;4.53;;;;;;;;;;5054744;28;20124;-80
2023/06/26 07:12:35;;;;;;;5.43;4.35;;;;;;;;;;5045113;28;20032;-80
2023/06/26 07:15:02;;;;;;;17.83;4.70;;;;;;;;;;5037102;28;20028;-80
2023/06/26 07:17:28;;;;;;;4.93;4.10;;;;;;;;;;5058442;28;20081;-80
2023/06/26 07:19:53;;;;;;;4.95;4.47;;;;;;;;;;5048167;28;20422;-80
2023/06/26 07:22:21;;;;;;;5.80;4.20;;;;;;;;;;5058591;28;20029;-80
2023/06/26 07:24:50;;;;;;;5.53;4.32;;;;;;;;;;5035481;28;20091;-80
2023/06/26 07:27:16;;;;;;;13.02;4.40;;;;;;;;;;5041747;28;20036;-80
2023/06/26 07:29:42;;;;;;;5.13;4.03;;;;;;;;;;5057825;28;20024;-79
2023/06/26 07:32:08;;;;;;;5.07;4.57;;;;;;;;;;5038971;28;20052;-81
2023/06/26 07:34:33;;;;;;;6.10;4.40;;;;;;;;;;5054599;28;20412;-81
2023/06/26 07:36:59;;;;;;;6.22;4.20;;;;;;;;;;5044282;28;20059;-80
2023/06/26 07:39:24;;;;;;;6.80;4.28;;;;;;;;;;5036812;28;20495;-81
2023/06/26 07:41:49;;;;;;;4.85;4.05;;;;;;;;;;5036589;28;20029;-80
2023/06/26 07:44:15;;;;;;;4.72;4.25;;;;;;;;;;5055608;28;20036;-81
2023/06/26 07:46:40;;;;;;;14.63;4.68;;;;;;;;;;5038003;28;20209;-81
2023/06/26 07:49:06;;;;;;;6.55;4.50;;;;;;;;;;5057921;28;20028;-82
2023/06/26 07:51:34;;;;;;;11.35;4.72;;;;;;;;;;5068476;28;20033;-80
2023/06/26 07:54:00;;;;;;;4.88;4.38;;;;;;;;;;5057674;28;20024;-79
2023/06/26 07:56:25;;;;;;;6.22;4.93;;;;;;;;;;5054468;28;20349;-82
2023/06/26 07:58:50;;;;;;;4.47;4.07;;;;;;;;;;5059500;28;20368;-81
2023/06/26 08:01:16;;;;;;;4.65;4.20;;;;;;;;;;5034890;28;20030;-81
2023/06/26 08:03:42;;;;;;;6.65;4.22;;;;;;;;;;5034652;28;20147;-80
2023/06/26 08:06:07;;;;;;;5.68;4.30;;;;;;;;;;5039084;28;20023;-81
2023/06/26 08:08:32;;;;;;;6.78;4.53;;;;;;;;;;5054496;28;20025;-81
2023/06/26 08:10:58;;;;;;;5.50;4.10;;;;;;;;;;5037591;28;20052;-79
2023/06/26 08:13:25;;;;;;;5.55;4.43;;;;;;;;;;5040908;28;20120;-79
2023/06/26 08:15:50;;;;;;;6.38;4.07;;;;;;;;;;5054293;28;20300;-81
2023/06/26 08:18:15;;;;;;;4.88;4.30;;;;;;;;;;5054593;28;20132;-81
2023/06/26 08:20:43;;;;;;;7.85;3.90;;;;;;;;;;5039320;28;20021;-80
2023/06/26 08:23:08;;;;;;;10.82;4.63;;;;;;;;;;5038166;28;20552;-78
2023/06/26 08:25:34;;;;;;;4.82;4.35;;;;;;;;;;5034594;28;20040;-79
2023/06/26 08:27:59;;;;;;;4.75;4.07;;;;;;;;;;5034629;28;20053;-79
2023/06/26 08:30:27;;;;;;;7.18;4.53;;;;;;;;;;5037019;28;20040;-80
2023/06/26 08:32:53;;;;;;;5.15;4.43;;;;;;;;;;5055419;28;20047;-80
2023/06/26 08:35:19;;;;;;;8.05;4.40;;;;;;;;;;5033237;28;20056;-79
2023/06/26 08:37:44;;;;;;;4.70;4.15;;;;;;;;;;5035015;28;20119;-80
2023/06/26 08:40:10;;;;;;;4.60;4.20;;;;;;;;;;5053514;28;20029;-80
2023/06/26 08:42:35;;;;;;;4.90;4.40;;;;;;;;;;5052207;28;20041;-80
2023/06/26 08:45:00;;;;;;;6.50;4.15;;;;;;;;;;5053740;28;20029;-79
2023/06/26 08:47:26;;;;;;;8.88;4.10;;;;;;;;;;5026496;28;20041;-80
2023/06/26 08:50:12;;;;;;;4.30;3.90;;;;;;;;;;5053266;28;20043;-80
2023/06/26 08:52:45;;;;;;;5.32;4.47;;;;;;;;;;5038299;28;20114;-80
2023/06/26 08:55:15;;;;;;;11.90;4.25;;;;;;;;;;5036324;28;20179;-81
2023/06/26 08:57:40;;;;;;;8.07;4.15;;;;;;;;;;5053735;28;20147;-80
2023/06/26 09:00:08;;;;;;;5.90;3.90;;;;;;;;;;5037442;28;20052;-81
2023/06/26 09:02:33;;;;;;;7.22;4.05;;;;;;;;;;5038217;28;20025;-79
2023/06/26 09:04:59;;;;;;;4.53;4.13;;;;;;;;;;5055803;28;20045;-79
2023/06/26 09:07:24;;;;;;;4.50;4.10;;;;;;;;;;5055280;28;20037;-80
2023/06/26 09:09:50;;;;;;;6.03;3.85;;;;;;;;;;5037771;28;20052;-81
2023/06/26 09:12:15;;;;;;;4.05;3.47;;;;;;;;;;5039983;28;20032;-80
2023/06/26 09:14:41;;;;;;;4.65;3.63;;;;;;;;;;5037037;28;20024;-81
2023/06/26 09:17:06;;;;;;;6.28;3.75;;;;;;;;;;5037652;28;20041;-79
2023/06/26 09:19:32;;;;;;;9.10;3.90;;;;;;;;;;5059052;28;20040;-80
2023/06/26 09:21:57;;;;;;;4.40;3.60;;;;;;;;;;5035176;28;20049;-80
2023/06/26 09:24:22;;;;;;;5.15;3.88;;;;;;;;;;5039499;28;20399;-80
2023/06/26 09:26:49;;;;;;;3.97;3.50;;;;;;;;;;5052514;28;20021;-80
2023/06/26 09:29:15;;;;;;;5.93;3.53;;;;;;;;;;5055210;28;20041;-81
2023/06/26 09:31:40;;;;;;;4.20;3.80;;;;;;;;;;5060580;28;20036;-79
2023/06/26 09:34:06;;;;;;;4.82;3.45;;;;;;;;;;5033905;28;20129;-81
2023/06/26 09:36:36;;;;;;;4.45;3.67;;;;;;;;;;5060094;28;20508;-80
2023/06/26 09:39:08;;;;;;;5.90;3.88;;;;;;;;;;5054116;28;20024;-81
2023/06/26 09:41:38;;;;;;;5.05;3.80;;;;;;;;;;5037486;28;20053;-78
2023/06/26 09:44:05;;;;;;;8.57;3.60;;;;;;;;;;5055049;28;20159;-79
2023/06/26 09:46:30;;;;;;;4.40;4.00;;;;;;;;;;5035746;28;20408;-79
2023/06/26 09:49:08;;;;;;;5.88;3.92;;;;;;;;;;5044096;28;20055;-79
2023/06/26 09:51:35;;;;;;;14.48;4.10;;;;;;;;;;5036358;28;20033;-79
2023/06/26 09:54:02;;;;;;;7.35;4.00;;;;;;;;;;5037623;28;20060;-79
2023/06/26 09:56:28;;;;;;;3.90;3.53;;;;;;;;;;5053393;28;20037;-78
2023/06/26 09:58:56;;;;;;;4.30;3.95;;;;;;;;;;5033906;28;20112;-78
2023/06/26 10:01:22;;;;;;;4.05;3.65;;;;;;;;;;5054431;28;20039;-79
2023/06/26 10:03:47;;;;;;;4.10;3.75;;;;;;;;;;5038412;28;20029;-79
2023/06/26 10:06:14;;;;;;;4.18;3.80;;;;;;;;;;5053820;28;20036;-79
2023/06/26 10:08:41;;;;;;;4.45;3.90;;;;;;;;;;5037137;28;20027;-78
2023/06/26 10:11:12;;;;;;;4.70;4.18;;;;;;;;;;5053129;28;20052;-77
2023/06/26 10:13:41;;;;;;;4.65;4.15;;;;;;;;;;5036623;28;20087;-79
2023/06/26 10:16:08;;;;;;;4.30;3.90;;;;;;;;;;5056427;28;20431;-78
2023/06/26 10:18:37;;;;;;;4.28;3.88;;;;;;;;;;5064994;28;20037;-77
2023/06/26 10:21:04;;;;;;;4.28;3.88;;;;;;;;;;5053773;28;20016;-77
2023/06/26 10:23:31;;;;;;;3.75;3.35;;;;;;;;;;5055675;28;20025;-79
2023/06/26 10:25:59;;;;;;;5.45;3.75;;;;;;;;;;5038486;28;20025;-78
2023/06/26 10:28:26;;;;;;;4.20;3.75;;;;;;;;;;5043858;28;20530;-78
2023/06/26 10:30:53;;;;;;;4.10;3.80;;;;;;;;;;5053060;28;20044;-79
2023/06/26 10:33:19;;;;;;;4.30;3.90;;;;;;;;;;5040911;28;20063;-79
2023/06/26 10:35:45;;;;;;;6.15;3.85;;;;;;;;;;5036374;28;20051;-79
2023/06/26 10:38:11;;;;;;;3.83;3.40;;;;;;;;;;5054952;28;20032;-79
2023/06/26 10:40:44;;;;;;;4.53;4.10;;;;;;;;;;5053225;28;20048;-79
2023/06/26 10:43:11;;;;;;;4.75;4.18;;;;;;;;;;5053325;28;20056;-78
2023/06/26 10:45:44;;;;;;;4.80;4.10;;;;;;;;;;5053870;28;20431;-78
2023/06/26 10:48:09;;;;;;;14.00;4.47;;;;;;;;;;5062232;28;20036;-79
2023/06/26 10:50:37;;;;;;;4.75;3.60;;;;;;;;;;5031318;28;20414;-78
2023/06/26 10:53:22;;;;;;;4.05;3.75;;;;;;;;;;5052042;28;20052;-79
2023/06/26 10:55:54;;;;;;;4.55;4.00;;;;;;;;;;5034037;28;20128;-78
2023/06/26 10:58:35;;;;;;;8.02;3.70;;;;;;;;;;5050452;28;20080;-79
2023/06/26 11:01:21;;;;;;;5.40;4.00;;;;;;;;;;5033720;28;20052;-78
2023/06/26 11:04:05;;;;;;;4.60;4.15;;;;;;;;;;5054386;28;20060;-78
2023/06/26 11:06:31;;;;;;;7.03;4.00;;;;;;;;;;5047362;28;20040;-79
2023/06/26 11:09:06;;;;;;;4.50;4.10;;;;;;;;;;5037401;28;20566;-78
2023/06/26 11:12:02;;;;;;;6.00;3.67;;;;;;;;;;5051872;28;20074;-78
2023/06/26 11:14:27;;;;;;;7.28;4.20;;;;;;;;;;5042155;28;20097;-77
2023/06/26 11:16:55;;;;;;;4.10;3.80;;;;;;;;;;5038956;28;20037;-79
2023/06/26 11:19:21;;;;;;;7.00;4.28;;;;;;;;;;5052459;28;20029;-79
2023/06/26 11:21:46;;;;;;;4.70;4.30;;;;;;;;;;5031690;28;20037;-78
2023/06/26 11:24:13;;;;;;;9.50;4.68;;;;;;;;;;5042386;28;20028;-78
2023/06/26 11:26:42;;;;;;;5.65;4.18;;;;;;;;;;5033611;28;20498;-78
2023/06/26 11:29:08;;;;;;;4.65;4.25;;;;;;;;;;5036812;28;20394;-79
2023/06/26 11:31:36;;;;;;;7.78;4.40;;;;;;;;;;5052173;28;20119;-79
2023/06/26 11:34:04;;;;;;;11.57;4.30;;;;;;;;;;5055306;28;20110;-79
2023/06/26 11:36:31;;;;;;;5.88;4.35;;;;;;;;;;5052685;28;20041;-78
2023/06/26 11:39:00;;;;;;;8.35;4.78;;;;;;;;;;5057830;28;20017;-79
2023/06/26 11:41:32;;;;;;;6.40;4.38;;;;;;;;;;5029543;28;20144;-78
2023/06/26 11:44:06;;;;;;;5.97;4.53;;;;;;;;;;5034134;28;20040;-77
2023/06/26 11:46:34;;;;;;;7.50;4.07;;;;;;;;;;5055413;28;20033;-79
2023/06/26 11:49:02;;;;;;;6.07;4.07;;;;;;;;;;5053275;28;20040;-79
2023/06/26 11:51:28;;;;;;;6.07;4.55;;;;;;;;;;5032248;28;20036;-78
2023/06/26 11:53:53;;;;;;;7.75;5.10;;;;;;;;;;5033246;28;20032;-78
2023/06/26 11:56:22;;;;;;;4.90;4.00;;;;;;;;;;5035748;28;20033;-79
2023/06/26 11:59:12;;;;;;;8.45;5.25;;;;;;;;;;5030264;28;20029;-78
2023/06/26 12:01:40;;;;;;;5.20;4.70;;;;;;;;;;5033963;28;20037;-78
2023/06/26 12:04:07;;;;;;;6.90;4.72;;;;;;;;;;5053877;28;20041;-79
2023/06/26 12:06:34;;;;;;;5.70;4.90;;;;;;;;;;5048815;28;20056;-79
2023/06/26 12:09:03;;;;;;;5.03;4.40;;;;;;;;;;5049820;28;20024;-79
2023/06/26 12:11:29;;;;;;;4.95;4.47;;;;;;;;;;5032262;28;20041;-79
2023/06/26 12:13:55;;;;;;;9.93;5.00;;;;;;;;;;5048970;28;20041;-79
2023/06/26 12:16:20;;;;;;;6.65;4.38;;;;;;;;;;5034136;28;20033;-80
2023/06/26 12:18:46;;;;;;;5.50;5.00;;;;;;;;;;5028926;28;20521;-78
2023/06/26 12:21:44;;;;;;;9.77;4.80;;;;;;;;;;5052696;28;20067;-78
2023/06/26 12:24:13;;;;;;;5.03;4.53;;;;;;;;;;5050115;28;20032;-78
2023/06/26 12:26:43;;;;;;;6.82;5.32;;;;;;;;;;5051550;28;20017;-79
2023/06/26 12:29:13;;;;;;;5.05;4.50;;;;;;;;;;5061013;28;20045;-79
2023/06/26 12:31:43;;;;;;;6.55;4.70;;;;;;;;;;5049499;28;20395;-79
2023/06/26 12:34:16;;;;;;;5.57;5.10;;;;;;;;;;5051379;28;20082;-79
2023/06/26 12:36:43;;;;;;;5.60;5.07;;;;;;;;;;5047758;28;20041;-79
2023/06/26 12:39:12;;;;;;;6.30;4.45;;;;;;;;;;5050966;28;20032;-78
2023/06/26 12:41:53;;;;;;;5.53;5.03;;;;;;;;;;5033308;28;20029;-79
2023/06/26 12:44:19;;;;;;;4.95;4.43;;;;;;;;;;5050647;28;20047;-79
2023/06/26 12:46:46;;;;;;;5.60;5.05;;;;;;;;;;5053774;28;20094;-77
2023/06/26 12:49:12;;;;;;;5.05;4.35;;;;;;;;;;5035889;28;20044;-81
2023/06/26 12:51:37;;;;;;;5.70;4.80;;;;;;;;;;5033328;28;20044;-78
2023/06/26 12:54:03;;;;;;;5.70;4.40;;;;;;;;;;5032531;28;20029;-79
2023/06/26 12:56:28;;;;;;;6.47;4.88;;;;;;;;;;5033253;28;20125;-79
2023/06/26 12:58:53;;;;;;;7.75;4.82;;;;;;;;;;5051860;28;20132;-78
2023/06/26 13:01:19;;;;;;;5.70;4.78;;;;;;;;;;5033548;28;20041;-78
2023/06/26 13:03:45;;;;;;;7.43;4.43;;;;;;;;;;5052655;28;20089;-79
2023/06/26 13:06:10;;;;;;;9.68;4.95;;;;;;;;;;5030853;28;20658;-77
2023/06/26 13:08:37;;;;;;;5.85;5.28;;;;;;;;;;5049399;28;20037;-77
2023/06/26 13:11:02;;;;;;;6.72;4.72;;;;;;;;;;5050258;28;20047;-78
2023/06/26 13:13:27;;;;;;;5.50;5.00;;;;;;;;;;5048759;28;20483;-78
2023/06/26 13:15:52;;;;;;;6.50;4.50;;;;;;;;;;5055035;28;20123;-78
2023/06/26 13:18:18;;;;;;;5.70;4.80;;;;;;;;;;5036707;28;20470;-77
2023/06/26 13:20:43;;;;;;;5.50;5.00;;;;;;;;;;5060081;28;20082;-79
2023/06/26 13:23:08;;;;;;;10.25;5.68;;;;;;;;;;5053409;28;20123;-78
2023/06/26 13:25:34;;;;;;;10.32;4.60;;;;;;;;;;5036069;28;20119;-79
2023/06/26 13:27:59;;;;;;;11.50;5.05;;;;;;;;;;5036426;28;20033;-78
2023/06/26 13:30:25;;;;;;;8.02;5.07;;;;;;;;;;5063887;28;20033;-79
2023/06/26 13:32:50;;;;;;;4.90;4.40;;;;;;;;;;5054075;28;20025;-79
2023/06/26 13:35:16;;;;;;;6.55;4.72;;;;;;;;;;5053560;28;20399;-80
2023/06/26 13:37:42;;;;;;;5.30;4.82;;;;;;;;;;5040091;28;20036;-78
2023/06/26 13:40:08;;;;;;;5.72;5.15;;;;;;;;;;5038008;28;20040;-78
2023/06/26 13:42:36;;;;;;;7.63;5.30;;;;;;;;;;5053023;28;20041;-78
2023/06/26 13:45:01;;;;;;;5.88;4.93;;;;;;;;;;5033125;28;20025;-78
2023/06/26 13:47:26;;;;;;;4.90;4.45;;;;;;;;;;5056914;28;20037;-76
2023/06/26 13:49:52;;;;;;;5.55;4.40;;;;;;;;;;5037744;28;20132;-77
2023/06/26 13:52:17;;;;;;;4.90;4.50;;;;;;;;;;5050429;28;20055;-78
2023/06/26 13:54:42;;;;;;;7.63;4.65;;;;;;;;;;5036727;28;20056;-78
2023/06/26 13:57:08;;;;;;;6.43;4.72;;;;;;;;;;5054099;28;20487;-78
2023/06/26 13:59:36;;;;;;;5.38;4.88;;;;;;;;;;5039350;28;20067;-78
2023/06/26 14:02:02;;;;;;;5.60;4.63;;;;;;;;;;5056875;28;20037;-78
2023/06/26 14:04:27;;;;;;;6.53;4.57;;;;;;;;;;5037675;28;20473;-78
2023/06/26 14:06:52;;;;;;;7.57;4.72;;;;;;;;;;5051851;28;20033;-78
2023/06/26 14:09:18;;;;;;;5.97;5.00;;;;;;;;;;5051889;28;20017;-78
2023/06/26 14:11:43;;;;;;;5.35;4.85;;;;;;;;;;5051257;28;20111;-78
2023/06/26 14:14:09;;;;;;;5.63;4.80;;;;;;;;;;5039186;28;20041;-77
2023/06/26 14:16:34;;;;;;;5.50;4.90;;;;;;;;;;5032647;28;20143;-77
2023/06/26 14:19:00;;;;;;;4.82;4.32;;;;;;;;;;5051198;28;20033;-78
2023/06/26 14:21:26;;;;;;;5.65;4.55;;;;;;;;;;5056019;28;20033;-79
2023/06/26 14:23:51;;;;;;;9.48;4.85;;;;;;;;;;5058980;28;20029;-81
2023/06/26 14:26:17;;;;;;;7.30;5.30;;;;;;;;;;5058822;28;20082;-81
2023/06/26 14:28:42;;;;;;;5.03;4.53;;;;;;;;;;5057167;28;20056;-80
2023/06/26 14:31:07;;;;;;;5.18;4.50;;;;;;;;;;5058054;28;20086;-80
2023/06/26 14:33:33;;;;;;;5.82;4.65;;;;;;;;;;5058439;28;20168;-80
2023/06/26 14:35:58;;;;;;;6.38;4.70;;;;;;;;;;5041382;28;20468;-80